Time;durP1;ratioP1;P1;durP2;ratioP2;P2;SDS_P1;SDS_P2;PMS_P1;PMS_P2;Temp;Humidity;BMP_temperature;BMP_pressure;BME280_temperature;BME280_humidity;BME280_pressure;Samples;Min_cycle;Max_cycle;Signal;HPM_P1;HPM_P2
2021/08/23 00:02:09;;;;;;;5.18;1.95;;;;;;;;;;5075619;28;20040;-63
2021/08/23 00:04:35;;;;;;;4.95;2.45;;;;;;;;;;5075638;28;20035;-63
2021/08/23 00:07:03;;;;;;;4.13;2.42;;;;;;;;;;5075935;28;20028;-65
2021/08/23 00:09:29;;;;;;;3.80;1.95;;;;;;;;;;5075237;28;20082;-64
2021/08/23 00:11:55;;;;;;;3.80;2.45;;;;;;;;;;5075372;28;20029;-64
2021/08/23 00:14:20;;;;;;;2.90;2.10;;;;;;;;;;5057201;28;20020;-64
2021/08/23 00:16:46;;;;;;;4.65;2.45;;;;;;;;;;5074947;28;20816;-65
2021/08/23 00:19:12;;;;;;;4.95;2.40;;;;;;;;;;5074903;28;20396;-64
2021/08/23 00:21:43;;;;;;;3.85;2.40;;;;;;;;;;5074887;28;20111;-63
2021/08/23 00:24:21;;;;;;;3.55;2.45;;;;;;;;;;5075255;28;20103;-64
2021/08/23 00:26:52;;;;;;;5.15;2.28;;;;;;;;;;5057136;28;20047;-64
2021/08/23 00:29:19;;;;;;;2.78;2.05;;;;;;;;;;5075268;28;20029;-65
2021/08/23 00:31:45;;;;;;;5.13;2.58;;;;;;;;;;5074902;28;20032;-64
2021/08/23 00:34:11;;;;;;;6.25;2.40;;;;;;;;;;5074862;28;20063;-64
2021/08/23 00:36:37;;;;;;;4.05;2.58;;;;;;;;;;5074919;28;20079;-65
2021/08/23 00:39:04;;;;;;;2.33;2.13;;;;;;;;;;5074563;28;20507;-64
2021/08/23 00:41:32;;;;;;;4.00;2.30;;;;;;;;;;5074895;28;20123;-64
2021/08/23 00:43:58;;;;;;;3.28;2.60;;;;;;;;;;5074819;28;20028;-64
2021/08/23 00:46:24;;;;;;;2.63;2.25;;;;;;;;;;5074476;28;20028;-64
2021/08/23 00:48:50;;;;;;;5.03;2.40;;;;;;;;;;5060183;28;20021;-64
2021/08/23 00:51:16;;;;;;;5.65;2.47;;;;;;;;;;5034720;28;20041;-64
2021/08/23 00:53:43;;;;;;;6.35;2.65;;;;;;;;;;5026122;28;20034;-65
2021/08/23 00:56:09;;;;;;;5.97;2.47;;;;;;;;;;5054563;28;20028;-64
2021/08/23 00:58:38;;;;;;;9.38;2.90;;;;;;;;;;5054275;28;20053;-64
2021/08/23 01:01:09;;;;;;;3.42;2.22;;;;;;;;;;5054166;28;20473;-63
2021/08/23 01:03:54;;;;;;;8.02;2.83;;;;;;;;;;5054308;28;20461;-63
2021/08/23 01:06:21;;;;;;;5.38;2.63;;;;;;;;;;5054027;28;20047;-63
2021/08/23 01:08:48;;;;;;;8.00;2.72;;;;;;;;;;5054072;28;20028;-64
2021/08/23 01:11:15;;;;;;;3.50;2.47;;;;;;;;;;5054173;28;20033;-64
2021/08/23 01:13:51;;;;;;;10.65;2.70;;;;;;;;;;5054037;28;20059;-64
2021/08/23 01:16:17;;;;;;;3.17;2.85;;;;;;;;;;5042357;28;20201;-64
2021/08/23 01:18:43;;;;;;;3.80;2.72;;;;;;;;;;5073898;28;20028;-65
2021/08/23 01:21:10;;;;;;;5.97;2.60;;;;;;;;;;5073896;28;20078;-64
2021/08/23 01:23:37;;;;;;;2.55;2.30;;;;;;;;;;5073655;28;20029;-65
2021/08/23 01:26:04;;;;;;;5.22;3.00;;;;;;;;;;5074018;28;20025;-64
2021/08/23 01:28:45;;;;;;;7.03;2.78;;;;;;;;;;5073777;28;20017;-64
2021/08/23 01:31:14;;;;;;;3.58;2.30;;;;;;;;;;5073675;28;20040;-64
2021/08/23 01:33:44;;;;;;;12.18;2.63;;;;;;;;;;5072730;28;20032;-65
2021/08/23 01:36:10;;;;;;;2.92;2.60;;;;;;;;;;5073433;28;20058;-65
2021/08/23 01:38:37;;;;;;;3.55;2.70;;;;;;;;;;5073442;28;20023;-64
2021/08/23 01:41:04;;;;;;;3.30;2.33;;;;;;;;;;5073644;28;20150;-63
2021/08/23 01:43:30;;;;;;;5.32;2.47;;;;;;;;;;5073411;28;20024;-64
2021/08/23 01:45:56;;;;;;;2.92;2.53;;;;;;;;;;5073450;28;20023;-64
2021/08/23 01:48:23;;;;;;;3.22;1.98;;;;;;;;;;5073293;28;20020;-63
2021/08/23 01:50:49;;;;;;;9.15;2.50;;;;;;;;;;5073259;28;20439;-64
2021/08/23 01:53:16;;;;;;;3.13;2.25;;;;;;;;;;5055257;28;20035;-63
2021/08/23 01:55:42;;;;;;;5.95;2.67;;;;;;;;;;5073156;28;20478;-64
2021/08/23 01:58:08;;;;;;;21.65;3.08;;;;;;;;;;5073086;28;20063;-63
2021/08/23 02:00:34;;;;;;;7.05;2.40;;;;;;;;;;5073079;28;20032;-63
2021/08/23 02:03:00;;;;;;;5.43;2.58;;;;;;;;;;5072904;28;20020;-64
2021/08/23 02:05:28;;;;;;;4.88;2.40;;;;;;;;;;5073059;28;20067;-64
2021/08/23 02:07:54;;;;;;;3.85;2.30;;;;;;;;;;5072759;28;20383;-64
2021/08/23 02:10:20;;;;;;;7.90;2.17;;;;;;;;;;5073372;28;20020;-64
2021/08/23 02:12:46;;;;;;;3.83;2.45;;;;;;;;;;5073054;28;20054;-63
2021/08/23 02:15:12;;;;;;;18.45;2.35;;;;;;;;;;5072884;28;20029;-63
2021/08/23 02:17:38;;;;;;;6.43;2.53;;;;;;;;;;5054854;28;20061;-63
2021/08/23 02:20:08;;;;;;;4.80;2.45;;;;;;;;;;5052788;28;20388;-63
2021/08/23 02:22:35;;;;;;;4.43;1.92;;;;;;;;;;5052615;28;20548;-64
2021/08/23 02:25:01;;;;;;;3.13;2.30;;;;;;;;;;5052880;28;20116;-63
2021/08/23 02:27:27;;;;;;;4.57;2.50;;;;;;;;;;5052729;28;20100;-63
2021/08/23 02:29:53;;;;;;;4.38;2.10;;;;;;;;;;5052565;28;20052;-63
2021/08/23 02:32:19;;;;;;;3.72;2.38;;;;;;;;;;5034718;28;20083;-63
2021/08/23 02:34:44;;;;;;;2.40;2.20;;;;;;;;;;5052708;28;20469;-63
2021/08/23 02:37:11;;;;;;;3.17;2.28;;;;;;;;;;5052584;28;20380;-63
2021/08/23 02:39:36;;;;;;;5.53;2.13;;;;;;;;;;5052428;28;20061;-64
2021/08/23 02:42:02;;;;;;;3.92;2.10;;;;;;;;;;5052502;28;20063;-63
2021/08/23 02:44:28;;;;;;;5.93;2.00;;;;;;;;;;5052536;28;20821;-64
2021/08/23 02:46:54;;;;;;;2.72;2.00;;;;;;;;;;5052252;28;20059;-63
2021/08/23 02:49:21;;;;;;;3.78;2.45;;;;;;;;;;5052208;28;20021;-64
2021/08/23 02:51:47;;;;;;;12.75;2.15;;;;;;;;;;5052272;28;20136;-63
2021/08/23 02:54:13;;;;;;;4.53;2.15;;;;;;;;;;5052306;28;20116;-64
2021/08/23 02:56:39;;;;;;;2.42;1.85;;;;;;;;;;5052426;28;20024;-63
2021/08/23 02:59:05;;;;;;;5.93;2.50;;;;;;;;;;5052099;28;20384;-64
2021/08/23 03:01:31;;;;;;;4.95;2.00;;;;;;;;;;5052065;28;20029;-64
2021/08/23 03:03:57;;;;;;;5.72;1.90;;;;;;;;;;5052160;28;20028;-64
2021/08/23 03:06:23;;;;;;;2.15;1.88;;;;;;;;;;5052242;28;20107;-63
2021/08/23 03:08:49;;;;;;;2.15;1.90;;;;;;;;;;5052056;28;20558;-63
2021/08/23 03:11:15;;;;;;;4.10;1.70;;;;;;;;;;5052358;28;20064;-64
2021/08/23 03:13:42;;;;;;;3.30;1.90;;;;;;;;;;5052251;28;20040;-63
2021/08/23 03:16:08;;;;;;;2.47;1.70;;;;;;;;;;5057071;28;20124;-63
2021/08/23 03:18:34;;;;;;;2.35;1.80;;;;;;;;;;5053993;28;20031;-63
2021/08/23 03:21:01;;;;;;;6.43;1.85;;;;;;;;;;5071969;28;20071;-64
2021/08/23 03:23:27;;;;;;;3.75;1.83;;;;;;;;;;5071987;28;20032;-63
2021/08/23 03:25:53;;;;;;;5.88;1.67;;;;;;;;;;5072072;28;20391;-63
2021/08/23 03:28:20;;;;;;;4.80;1.63;;;;;;;;;;5072339;28;20020;-64
2021/08/23 03:30:46;;;;;;;4.53;1.80;;;;;;;;;;5072095;28;20472;-64
2021/08/23 03:33:12;;;;;;;3.30;1.65;;;;;;;;;;5072582;28;20038;-64
2021/08/23 03:35:39;;;;;;;4.80;1.90;;;;;;;;;;5071837;28;20032;-64
2021/08/23 03:38:05;;;;;;;4.88;1.95;;;;;;;;;;5071855;28;20494;-63
2021/08/23 03:40:31;;;;;;;3.45;2.08;;;;;;;;;;5071546;28;20070;-64
2021/08/23 03:42:57;;;;;;;10.55;1.75;;;;;;;;;;5071992;28;20064;-65
2021/08/23 03:45:23;;;;;;;4.03;1.48;;;;;;;;;;5071787;28;20029;-65
2021/08/23 03:47:49;;;;;;;3.47;1.75;;;;;;;;;;5071896;28;20028;-64
2021/08/23 03:50:15;;;;;;;5.65;1.40;;;;;;;;;;5034341;28;20033;-65
2021/08/23 03:52:41;;;;;;;7.00;1.80;;;;;;;;;;5034374;28;20053;-65
2021/08/23 03:55:07;;;;;;;5.78;1.60;;;;;;;;;;5071492;28;20032;-64
2021/08/23 03:57:35;;;;;;;4.10;1.40;;;;;;;;;;5074202;28;20020;-66
2021/08/23 04:00:01;;;;;;;3.22;1.42;;;;;;;;;;5057724;28;20032;-65
2021/08/23 04:02:27;;;;;;;2.38;1.42;;;;;;;;;;5075473;28;20035;-65
2021/08/23 04:04:53;;;;;;;2.40;1.65;;;;;;;;;;5075633;28;20103;-65
2021/08/23 04:07:19;;;;;;;1.75;1.40;;;;;;;;;;5075250;28;20460;-65
2021/08/23 04:09:45;;;;;;;4.97;1.40;;;;;;;;;;5075083;28;20538;-64
2021/08/23 04:12:11;;;;;;;9.10;1.70;;;;;;;;;;5075379;28;20027;-64
2021/08/23 04:14:37;;;;;;;4.25;1.70;;;;;;;;;;5075377;28;20107;-65
2021/08/23 04:17:03;;;;;;;2.42;1.30;;;;;;;;;;5075071;28;20048;-65
2021/08/23 04:19:29;;;;;;;2.42;1.38;;;;;;;;;;5057255;28;20032;-65
2021/08/23 04:21:55;;;;;;;5.28;1.92;;;;;;;;;;5074969;28;20456;-65
2021/08/23 04:24:21;;;;;;;3.78;1.40;;;;;;;;;;5075264;28;20426;-64
2021/08/23 04:26:47;;;;;;;4.93;1.50;;;;;;;;;;5074905;28;20486;-65
2021/08/23 04:29:15;;;;;;;2.67;1.48;;;;;;;;;;5075223;28;20059;-64
2021/08/23 04:31:41;;;;;;;3.70;1.58;;;;;;;;;;5074669;28;20525;-64
2021/08/23 04:34:10;;;;;;;3.92;1.63;;;;;;;;;;5075032;28;20031;-64
2021/08/23 04:36:36;;;;;;;6.57;1.85;;;;;;;;;;5074534;28;20059;-64
2021/08/23 04:39:03;;;;;;;3.20;1.60;;;;;;;;;;5075201;28;20139;-64
2021/08/23 04:41:29;;;;;;;2.55;1.48;;;;;;;;;;5075029;28;20456;-65
2021/08/23 04:43:55;;;;;;;4.05;1.30;;;;;;;;;;5074936;28;20376;-64
2021/08/23 04:46:22;;;;;;;5.10;1.50;;;;;;;;;;5074656;28;20052;-64
2021/08/23 04:48:49;;;;;;;2.08;1.45;;;;;;;;;;5060678;28;20044;-64
2021/08/23 04:51:15;;;;;;;11.48;1.73;;;;;;;;;;5034576;28;20026;-64
2021/08/23 04:53:41;;;;;;;3.35;1.35;;;;;;;;;;5053097;28;20467;-63
2021/08/23 04:56:11;;;;;;;10.15;1.80;;;;;;;;;;5073948;28;20025;-64
2021/08/23 04:58:37;;;;;;;8.38;1.45;;;;;;;;;;5074188;28;20514;-65
2021/08/23 05:01:03;;;;;;;7.43;1.30;;;;;;;;;;5074208;28;20097;-64
2021/08/23 05:03:29;;;;;;;3.50;1.88;;;;;;;;;;5074360;28;20021;-64
2021/08/23 05:05:55;;;;;;;5.93;1.50;;;;;;;;;;5074412;28;20024;-65
2021/08/23 05:08:21;;;;;;;13.20;1.50;;;;;;;;;;5072973;28;20338;-64
2021/08/23 05:10:47;;;;;;;11.45;1.50;;;;;;;;;;5074392;28;20090;-62
2021/08/23 05:13:13;;;;;;;6.93;1.40;;;;;;;;;;5074219;28;20028;-64
2021/08/23 05:15:39;;;;;;;14.75;1.67;;;;;;;;;;5042001;28;20029;-64
2021/08/23 05:18:05;;;;;;;5.57;1.40;;;;;;;;;;5053640;28;20070;-63
2021/08/23 05:20:31;;;;;;;19.85;2.00;;;;;;;;;;5053842;28;20124;-64
2021/08/23 05:22:57;;;;;;;6.38;1.88;;;;;;;;;;5053683;28;20036;-65
2021/08/23 05:25:23;;;;;;;11.02;1.90;;;;;;;;;;5053997;28;20021;-64
2021/08/23 05:27:49;;;;;;;5.40;1.63;;;;;;;;;;5053671;28;20361;-64
2021/08/23 05:30:15;;;;;;;14.38;1.77;;;;;;;;;;5053751;28;20017;-64
2021/08/23 05:32:41;;;;;;;17.27;1.48;;;;;;;;;;5053747;28;20025;-65
2021/08/23 05:35:07;;;;;;;2.83;1.50;;;;;;;;;;5053785;28;20086;-64
2021/08/23 05:37:33;;;;;;;3.65;1.42;;;;;;;;;;5053889;28;20067;-64
2021/08/23 05:39:59;;;;;;;2.67;1.40;;;;;;;;;;5053327;28;20540;-64
2021/08/23 05:42:25;;;;;;;10.13;1.70;;;;;;;;;;5053442;28;20093;-64
2021/08/23 05:44:53;;;;;;;9.20;1.25;;;;;;;;;;5053809;28;20423;-63
2021/08/23 05:47:19;;;;;;;11.55;1.58;;;;;;;;;;5053152;28;20532;-64
2021/08/23 05:49:45;;;;;;;17.20;1.63;;;;;;;;;;5069026;28;20116;-64
2021/08/23 05:52:11;;;;;;;5.85;1.55;;;;;;;;;;5073584;28;20024;-64
2021/08/23 05:54:39;;;;;;;11.13;1.45;;;;;;;;;;5073333;28;20031;-64
2021/08/23 05:57:06;;;;;;;9.23;1.60;;;;;;;;;;5073258;28;20027;-63
2021/08/23 05:59:32;;;;;;;15.77;1.50;;;;;;;;;;5072738;28;20040;-65
2021/08/23 06:01:58;;;;;;;7.68;1.45;;;;;;;;;;5055144;28;20033;-64
2021/08/23 06:04:25;;;;;;;13.32;1.88;;;;;;;;;;5055065;28;20442;-64
2021/08/23 06:06:51;;;;;;;4.07;1.73;;;;;;;;;;5072987;28;20391;-64
2021/08/23 06:09:18;;;;;;;13.85;1.98;;;;;;;;;;5072797;28;20056;-64
2021/08/23 06:11:44;;;;;;;14.57;1.90;;;;;;;;;;5072759;28;20051;-64
2021/08/23 06:14:10;;;;;;;20.13;1.65;;;;;;;;;;5072740;28;20539;-64
2021/08/23 06:16:36;;;;;;;27.63;1.80;;;;;;;;;;5063538;28;20045;-64
2021/08/23 06:19:02;;;;;;;21.55;1.60;;;;;;;;;;5034549;28;20119;-64
2021/08/23 06:21:28;;;;;;;20.75;1.90;;;;;;;;;;5052940;28;20108;-63
2021/08/23 06:23:54;;;;;;;24.05;2.15;;;;;;;;;;5052651;28;20104;-64
2021/08/23 06:26:20;;;;;;;25.30;1.55;;;;;;;;;;5052654;28;20079;-64
2021/08/23 06:28:46;;;;;;;32.55;2.30;;;;;;;;;;5034314;28;20025;-65
2021/08/23 06:31:12;;;;;;;10.55;1.60;;;;;;;;;;5052539;28;20492;-64
2021/08/23 06:33:38;;;;;;;9.25;1.60;;;;;;;;;;5052298;28;20116;-64
2021/08/23 06:36:04;;;;;;;14.48;1.70;;;;;;;;;;5052021;28;20043;-64
2021/08/23 06:38:30;;;;;;;11.90;1.58;;;;;;;;;;5052498;28;20036;-64
2021/08/23 06:40:56;;;;;;;13.85;1.67;;;;;;;;;;5034477;28;20041;-63
2021/08/23 06:43:22;;;;;;;12.45;1.60;;;;;;;;;;5052361;28;20095;-64
2021/08/23 06:45:48;;;;;;;14.18;1.67;;;;;;;;;;5052329;28;20090;-64
2021/08/23 06:48:14;;;;;;;15.27;2.00;;;;;;;;;;5052049;28;20017;-65
2021/08/23 06:50:40;;;;;;;7.03;1.80;;;;;;;;;;5052673;28;20369;-63
2021/08/23 06:53:06;;;;;;;4.32;1.48;;;;;;;;;;5034503;28;20029;-64
2021/08/23 06:55:33;;;;;;;10.80;1.63;;;;;;;;;;5034189;28;20031;-62
2021/08/23 06:58:00;;;;;;;6.55;1.50;;;;;;;;;;5049987;28;20027;-61
2021/08/23 07:00:26;;;;;;;6.85;1.60;;;;;;;;;;5046089;28;20182;-61
2021/08/23 07:02:52;;;;;;;17.02;1.90;;;;;;;;;;5050780;28;20029;-61
2021/08/23 07:05:18;;;;;;;6.22;2.00;;;;;;;;;;5046055;28;20025;-62
2021/08/23 07:07:44;;;;;;;7.32;2.90;;;;;;;;;;5032239;28;20026;-62
2021/08/23 07:10:14;;;;;;;8.30;1.55;;;;;;;;;;5043975;28;20029;-61
2021/08/23 07:12:41;;;;;;;13.02;1.60;;;;;;;;;;5052060;28;20480;-61
2021/08/23 07:15:07;;;;;;;5.80;1.60;;;;;;;;;;5034556;28;20029;-61
2021/08/23 07:17:33;;;;;;;7.68;1.73;;;;;;;;;;5068171;28;20055;-62
2021/08/23 07:19:59;;;;;;;6.57;1.73;;;;;;;;;;5056279;28;20110;-61
2021/08/23 07:22:26;;;;;;;12.82;2.28;;;;;;;;;;5034015;28;20102;-62
2021/08/23 07:24:53;;;;;;;4.20;1.50;;;;;;;;;;5062021;28;20036;-61
2021/08/23 07:27:19;;;;;;;7.53;1.30;;;;;;;;;;5071636;28;20040;-62
2021/08/23 07:29:45;;;;;;;4.18;1.58;;;;;;;;;;5071701;28;20024;-62
2021/08/23 07:32:11;;;;;;;8.35;1.52;;;;;;;;;;5074436;28;20017;-61
2021/08/23 07:34:38;;;;;;;4.00;1.73;;;;;;;;;;5057632;28;20028;-62
2021/08/23 07:37:04;;;;;;;7.97;1.95;;;;;;;;;;5074912;28;20023;-62
2021/08/23 07:39:30;;;;;;;9.68;2.53;;;;;;;;;;5074719;28;20094;-61
2021/08/23 07:41:56;;;;;;;10.73;1.85;;;;;;;;;;5074292;28;20099;-62
2021/08/23 07:44:22;;;;;;;6.18;1.70;;;;;;;;;;5074135;28;20131;-61
2021/08/23 07:46:48;;;;;;;2.33;1.48;;;;;;;;;;5074268;28;20024;-62
2021/08/23 07:49:14;;;;;;;4.68;1.65;;;;;;;;;;5074286;28;20393;-61
2021/08/23 07:51:40;;;;;;;8.45;1.60;;;;;;;;;;5074702;28;20116;-62
2021/08/23 07:54:06;;;;;;;6.40;1.77;;;;;;;;;;5074638;28;20414;-62
2021/08/23 07:56:32;;;;;;;6.15;1.77;;;;;;;;;;5057424;28;20040;-61
2021/08/23 07:58:58;;;;;;;8.95;1.60;;;;;;;;;;5074948;28;20086;-62
2021/08/23 08:01:27;;;;;;;8.25;1.77;;;;;;;;;;5075192;28;20074;-60
2021/08/23 08:03:53;;;;;;;4.85;1.52;;;;;;;;;;5090576;28;20032;-61
2021/08/23 08:06:19;;;;;;;7.35;1.58;;;;;;;;;;5076804;28;20036;-61
2021/08/23 08:08:46;;;;;;;8.00;2.67;;;;;;;;;;5078231;28;20056;-61
2021/08/23 08:11:12;;;;;;;4.68;1.77;;;;;;;;;;5074748;28;20028;-60
2021/08/23 08:13:38;;;;;;;8.00;2.00;;;;;;;;;;5074072;28;20096;-61
2021/08/23 08:16:04;;;;;;;4.25;1.40;;;;;;;;;;5074130;28;20044;-61
2021/08/23 08:18:30;;;;;;;4.55;1.70;;;;;;;;;;5074672;28;20032;-61
2021/08/23 08:20:56;;;;;;;8.68;1.85;;;;;;;;;;5074502;28;20090;-61
2021/08/23 08:23:22;;;;;;;5.57;1.83;;;;;;;;;;5074619;28;20020;-61
2021/08/23 08:25:48;;;;;;;5.40;1.67;;;;;;;;;;5074400;28;20051;-60
2021/08/23 08:28:14;;;;;;;4.60;1.58;;;;;;;;;;5073266;28;20452;-62
2021/08/23 08:30:40;;;;;;;6.18;1.90;;;;;;;;;;5074347;28;20462;-60
2021/08/23 08:33:06;;;;;;;4.28;1.42;;;;;;;;;;5074975;28;20031;-62
2021/08/23 08:35:33;;;;;;;4.75;1.67;;;;;;;;;;5074743;28;20153;-62
2021/08/23 08:37:59;;;;;;;3.67;1.60;;;;;;;;;;5056612;28;20093;-61
2021/08/23 08:40:26;;;;;;;9.70;2.00;;;;;;;;;;5074452;28;20144;-61
2021/08/23 08:42:52;;;;;;;5.43;1.48;;;;;;;;;;5074048;28;20096;-61
2021/08/23 08:45:18;;;;;;;3.97;1.63;;;;;;;;;;5074054;28;20032;-60
2021/08/23 08:47:45;;;;;;;5.93;1.63;;;;;;;;;;5056043;28;20352;-61
2021/08/23 08:50:14;;;;;;;6.43;1.50;;;;;;;;;;5073939;28;20029;-61
2021/08/23 08:52:40;;;;;;;7.43;1.65;;;;;;;;;;5074389;28;20460;-64
2021/08/23 08:55:06;;;;;;;5.57;1.50;;;;;;;;;;5073836;28;20021;-61
2021/08/23 08:57:33;;;;;;;7.15;2.00;;;;;;;;;;5073972;28;20111;-61
2021/08/23 08:59:59;;;;;;;7.03;1.63;;;;;;;;;;5074107;28;20039;-61
2021/08/23 09:02:25;;;;;;;5.90;1.75;;;;;;;;;;5073427;28;20024;-60
2021/08/23 09:04:50;;;;;;;6.72;1.80;;;;;;;;;;5073382;28;20032;-60
2021/08/23 09:07:16;;;;;;;5.30;1.70;;;;;;;;;;5073889;28;20028;-61
2021/08/23 09:09:42;;;;;;;4.28;1.50;;;;;;;;;;5073740;28;20032;-61
2021/08/23 09:12:10;;;;;;;8.32;1.52;;;;;;;;;;5055855;28;20070;-61
2021/08/23 09:14:48;;;;;;;8.40;1.75;;;;;;;;;;5073407;28;20021;-60
2021/08/23 09:17:14;;;;;;;4.93;1.48;;;;;;;;;;5073145;28;20056;-61
2021/08/23 09:19:41;;;;;;;5.07;1.42;;;;;;;;;;5073238;28;20025;-60
2021/08/23 09:22:08;;;;;;;4.45;1.40;;;;;;;;;;5073730;28;20024;-61
2021/08/23 09:24:36;;;;;;;4.03;1.50;;;;;;;;;;5073445;28;20111;-60
2021/08/23 09:27:06;;;;;;;2.67;1.20;;;;;;;;;;5073867;28;20031;-61
2021/08/23 09:29:35;;;;;;;5.63;1.33;;;;;;;;;;5073228;28;20036;-61
2021/08/23 09:32:01;;;;;;;3.55;1.40;;;;;;;;;;5073041;28;20020;-62
2021/08/23 09:34:28;;;;;;;4.93;1.27;;;;;;;;;;5073335;28;20407;-62
2021/08/23 09:36:59;;;;;;;4.70;1.35;;;;;;;;;;5072766;28;20074;-60
2021/08/23 09:39:27;;;;;;;4.13;1.40;;;;;;;;;;5072956;28;20079;-61
2021/08/23 09:42:03;;;;;;;4.03;1.40;;;;;;;;;;5065857;28;20033;-61
2021/08/23 09:44:34;;;;;;;8.27;1.50;;;;;;;;;;5034985;28;20075;-61
2021/08/23 09:47:00;;;;;;;5.65;1.30;;;;;;;;;;5052799;28;20025;-60
2021/08/23 09:49:33;;;;;;;4.18;1.30;;;;;;;;;;5065941;28;20029;-61
2021/08/23 09:51:59;;;;;;;5.25;1.30;;;;;;;;;;5073034;28;20079;-61
2021/08/23 09:54:25;;;;;;;2.78;1.42;;;;;;;;;;5072139;28;20028;-61
2021/08/23 09:56:55;;;;;;;4.43;1.70;;;;;;;;;;5072701;28;20019;-60
2021/08/23 09:59:22;;;;;;;2.78;1.05;;;;;;;;;;5072247;28;20470;-61
2021/08/23 10:01:50;;;;;;;3.30;1.60;;;;;;;;;;5072301;28;20036;-61
2021/08/23 10:04:16;;;;;;;4.43;1.60;;;;;;;;;;5072990;28;20032;-61
2021/08/23 10:06:43;;;;;;;5.15;1.50;;;;;;;;;;5072268;28;20419;-60
2021/08/23 10:09:10;;;;;;;6.72;1.48;;;;;;;;;;5071794;28;20032;-61
2021/08/23 10:11:37;;;;;;;6.68;1.65;;;;;;;;;;5072494;28;20119;-61
2021/08/23 10:14:04;;;;;;;4.43;1.38;;;;;;;;;;5072461;28;20029;-61
2021/08/23 10:16:31;;;;;;;4.97;1.40;;;;;;;;;;5063176;28;20052;-61
2021/08/23 10:18:58;;;;;;;6.30;1.53;;;;;;;;;;5052388;28;20028;-61
2021/08/23 10:21:24;;;;;;;9.55;1.40;;;;;;;;;;5052382;28;20362;-60
2021/08/23 10:23:50;;;;;;;2.92;1.10;;;;;;;;;;5052156;28;20110;-62
2021/08/23 10:26:17;;;;;;;3.83;1.45;;;;;;;;;;5052289;28;20028;-62
2021/08/23 10:28:47;;;;;;;6.10;1.70;;;;;;;;;;5052627;28;20021;-61
2021/08/23 10:31:13;;;;;;;5.05;1.48;;;;;;;;;;5052670;28;20051;-61
2021/08/23 10:33:42;;;;;;;3.80;1.33;;;;;;;;;;5052228;28;20032;-61
2021/08/23 10:36:11;;;;;;;5.65;1.55;;;;;;;;;;5052386;28;20526;-60
2021/08/23 10:38:37;;;;;;;3.72;1.30;;;;;;;;;;5052224;28;20025;-61
2021/08/23 10:41:07;;;;;;;3.05;1.67;;;;;;;;;;5052153;28;20040;-60
2021/08/23 10:43:42;;;;;;;3.97;1.30;;;;;;;;;;5051935;28;20468;-61
2021/08/23 10:46:18;;;;;;;2.83;1.20;;;;;;;;;;5052138;28;20112;-61
2021/08/23 10:48:48;;;;;;;1.92;1.20;;;;;;;;;;5051862;28;20421;-61
2021/08/23 10:51:25;;;;;;;3.67;1.63;;;;;;;;;;5051726;28;20029;-62
2021/08/23 10:53:51;;;;;;;2.90;1.10;;;;;;;;;;5050571;28;20029;-60
2021/08/23 10:56:18;;;;;;;3.65;1.33;;;;;;;;;;5051429;28;20043;-60
2021/08/23 10:58:45;;;;;;;2.95;1.08;;;;;;;;;;5051968;28;20045;-64
2021/08/23 11:01:22;;;;;;;3.75;1.33;;;;;;;;;;5050792;28;20434;-61
2021/08/23 11:04:07;;;;;;;2.72;1.33;;;;;;;;;;5051120;28;20146;-60
2021/08/23 11:06:33;;;;;;;2.70;1.05;;;;;;;;;;5051138;28;20079;-62
2021/08/23 11:09:08;;;;;;;3.53;1.15;;;;;;;;;;5050473;28;20017;-62
2021/08/23 11:11:36;;;;;;;5.07;1.45;;;;;;;;;;5051272;28;20025;-60
2021/08/23 11:14:02;;;;;;;5.40;1.00;;;;;;;;;;5051578;28;20029;-61
2021/08/23 11:16:28;;;;;;;6.45;1.35;;;;;;;;;;5056925;28;20131;-61
2021/08/23 11:18:54;;;;;;;4.45;1.27;;;;;;;;;;5071628;28;20033;-60
2021/08/23 11:21:24;;;;;;;5.35;1.30;;;;;;;;;;5071673;28;20139;-60
2021/08/23 11:23:50;;;;;;;4.13;1.30;;;;;;;;;;5070427;28;20685;-60
2021/08/23 11:26:21;;;;;;;4.45;1.20;;;;;;;;;;5071009;28;20036;-60
2021/08/23 11:28:47;;;;;;;2.88;1.40;;;;;;;;;;5070943;28;20052;-61
2021/08/23 11:31:17;;;;;;;4.50;1.30;;;;;;;;;;5071746;28;20028;-60
2021/08/23 11:33:43;;;;;;;3.17;1.30;;;;;;;;;;5071687;28;20020;-61
2021/08/23 11:36:15;;;;;;;4.85;1.30;;;;;;;;;;5071405;28;20032;-61
2021/08/23 11:38:42;;;;;;;7.68;1.10;;;;;;;;;;5071538;28;20440;-61
2021/08/23 11:41:10;;;;;;;4.25;1.45;;;;;;;;;;5071686;28;20551;-61
2021/08/23 11:43:36;;;;;;;2.67;1.30;;;;;;;;;;5071793;28;20024;-62
2021/08/23 11:46:03;;;;;;;3.88;1.30;;;;;;;;;;5071660;28;20028;-61
2021/08/23 11:48:29;;;;;;;5.75;1.20;;;;;;;;;;5071444;28;20093;-62
2021/08/23 11:50:55;;;;;;;3.50;1.30;;;;;;;;;;5071504;28;20024;-61
2021/08/23 11:53:23;;;;;;;2.88;1.20;;;;;;;;;;5071451;28;20066;-62
2021/08/23 11:55:50;;;;;;;5.00;1.13;;;;;;;;;;5071431;28;20024;-61
2021/08/23 11:58:19;;;;;;;4.40;1.80;;;;;;;;;;5071760;28;20026;-61
2021/08/23 12:00:46;;;;;;;4.60;1.02;;;;;;;;;;5071341;28;20032;-61
2021/08/23 12:03:13;;;;;;;3.10;1.10;;;;;;;;;;5071458;28;20055;-61
2021/08/23 12:05:40;;;;;;;5.13;1.23;;;;;;;;;;5071257;28;20040;-61
2021/08/23 12:08:07;;;;;;;2.80;1.20;;;;;;;;;;5071712;28;20025;-62
2021/08/23 12:10:35;;;;;;;2.72;1.20;;;;;;;;;;5071321;28;20025;-62
2021/08/23 12:13:10;;;;;;;4.35;1.10;;;;;;;;;;5071211;28;20031;-62
2021/08/23 12:15:37;;;;;;;2.45;1.25;;;;;;;;;;5070844;28;20050;-62
2021/08/23 12:18:13;;;;;;;4.15;1.13;;;;;;;;;;5054961;28;20389;-62
2021/08/23 12:20:39;;;;;;;1.58;0.98;;;;;;;;;;5056773;28;20033;-61
2021/08/23 12:23:05;;;;;;;2.90;1.05;;;;;;;;;;5075059;28;20149;-61
2021/08/23 12:25:31;;;;;;;1.98;1.05;;;;;;;;;;5074618;28;20129;-62
2021/08/23 12:27:57;;;;;;;2.47;1.00;;;;;;;;;;5074473;28;20032;-62
2021/08/23 12:30:27;;;;;;;1.35;0.90;;;;;;;;;;5074580;28;20032;-62
2021/08/23 12:32:53;;;;;;;3.53;1.10;;;;;;;;;;5074443;28;20029;-61
2021/08/23 12:35:27;;;;;;;4.05;1.50;;;;;;;;;;5074527;28;20452;-61
2021/08/23 12:37:53;;;;;;;1.92;0.90;;;;;;;;;;5074180;28;20031;-61
2021/08/23 12:40:19;;;;;;;2.42;1.08;;;;;;;;;;5074233;28;20369;-63
2021/08/23 12:42:45;;;;;;;3.35;1.13;;;;;;;;;;5074284;28;20028;-61
2021/08/23 12:45:11;;;;;;;1.77;1.08;;;;;;;;;;5074352;28;20126;-62
2021/08/23 12:47:37;;;;;;;5.53;1.20;;;;;;;;;;5074102;28;20021;-61
2021/08/23 12:50:03;;;;;;;3.60;1.40;;;;;;;;;;5074143;28;20028;-62
2021/08/23 12:52:29;;;;;;;2.65;1.20;;;;;;;;;;5074278;28;20028;-62
2021/08/23 12:54:55;;;;;;;2.67;1.20;;;;;;;;;;5074354;28;20078;-61
2021/08/23 12:57:23;;;;;;;2.45;1.27;;;;;;;;;;5074158;28;20027;-61
2021/08/23 12:59:49;;;;;;;3.90;1.15;;;;;;;;;;5074024;28;20032;-61
2021/08/23 13:02:16;;;;;;;1.73;1.15;;;;;;;;;;5056215;28;20078;-62
2021/08/23 13:04:42;;;;;;;5.90;1.25;;;;;;;;;;5074117;28;20103;-61
2021/08/23 13:07:08;;;;;;;3.15;1.30;;;;;;;;;;5074058;28;20123;-61
2021/08/23 13:09:34;;;;;;;4.35;1.15;;;;;;;;;;5074116;28;20107;-62
2021/08/23 13:12:00;;;;;;;2.30;1.20;;;;;;;;;;5073809;28;20029;-62
2021/08/23 13:14:26;;;;;;;6.75;1.45;;;;;;;;;;5073491;28;20039;-63
2021/08/23 13:16:52;;;;;;;2.22;1.13;;;;;;;;;;5064387;28;20051;-62
2021/08/23 13:19:18;;;;;;;3.95;1.33;;;;;;;;;;5058580;28;20052;-62
2021/08/23 13:21:44;;;;;;;2.42;1.20;;;;;;;;;;5037383;28;20029;-62
2021/08/23 13:24:10;;;;;;;1.77;1.20;;;;;;;;;;5034766;28;20025;-62
2021/08/23 13:26:37;;;;;;;2.25;1.20;;;;;;;;;;5052185;28;20404;-62
2021/08/23 13:29:03;;;;;;;5.32;1.30;;;;;;;;;;5051904;28;20013;-62
2021/08/23 13:31:29;;;;;;;3.03;1.10;;;;;;;;;;5053049;28;20078;-63
2021/08/23 13:33:55;;;;;;;4.43;1.30;;;;;;;;;;5053224;28;20060;-62
2021/08/23 13:36:21;;;;;;;3.78;1.23;;;;;;;;;;5035545;28;20053;-62
2021/08/23 13:38:48;;;;;;;3.13;1.27;;;;;;;;;;5053395;28;20040;-63
2021/08/23 13:41:16;;;;;;;2.00;1.23;;;;;;;;;;5053107;28;20450;-63
2021/08/23 13:43:46;;;;;;;1.73;1.10;;;;;;;;;;5053171;28;20082;-62
2021/08/23 13:46:12;;;;;;;3.20;1.30;;;;;;;;;;5053139;28;20052;-63
2021/08/23 13:48:37;;;;;;;2.05;1.08;;;;;;;;;;5052909;28;20060;-63
2021/08/23 13:51:03;;;;;;;2.63;1.27;;;;;;;;;;5034892;28;20543;-62
2021/08/23 13:53:29;;;;;;;5.20;1.33;;;;;;;;;;5052830;28;20025;-63
2021/08/23 13:55:55;;;;;;;3.15;1.30;;;;;;;;;;5034969;28;20115;-63
2021/08/23 13:58:21;;;;;;;2.88;1.40;;;;;;;;;;5053040;28;20028;-63
2021/08/23 14:00:47;;;;;;;5.30;1.50;;;;;;;;;;5052720;28;20069;-62
2021/08/23 14:03:13;;;;;;;4.70;1.20;;;;;;;;;;5053022;28;20021;-63
2021/08/23 14:05:39;;;;;;;2.55;1.23;;;;;;;;;;5052604;28;20033;-63
2021/08/23 14:08:05;;;;;;;3.78;1.30;;;;;;;;;;5052554;28;20100;-60
2021/08/23 14:10:33;;;;;;;2.50;1.30;;;;;;;;;;5052538;28;20075;-62
2021/08/23 14:12:59;;;;;;;2.35;1.30;;;;;;;;;;5052315;28;20052;-62
2021/08/23 14:15:25;;;;;;;2.70;1.25;;;;;;;;;;5052250;28;20036;-61
2021/08/23 14:17:51;;;;;;;2.30;1.20;;;;;;;;;;5069169;28;20056;-61
2021/08/23 14:20:17;;;;;;;3.50;1.40;;;;;;;;;;5072648;28;20133;-63
2021/08/23 14:22:43;;;;;;;2.80;1.33;;;;;;;;;;5072241;28;20431;-61
2021/08/23 14:25:11;;;;;;;5.88;1.85;;;;;;;;;;5072186;28;20031;-61
2021/08/23 14:27:37;;;;;;;4.07;1.30;;;;;;;;;;5054226;28;20027;-61
2021/08/23 14:30:03;;;;;;;4.45;1.50;;;;;;;;;;5054438;28;20028;-61
2021/08/23 14:32:29;;;;;;;4.93;1.48;;;;;;;;;;5071954;28;20528;-61
2021/08/23 14:34:57;;;;;;;2.60;1.40;;;;;;;;;;5072209;28;20123;-61
2021/08/23 14:37:23;;;;;;;3.60;1.35;;;;;;;;;;5054593;28;20025;-61
2021/08/23 14:39:49;;;;;;;3.25;1.45;;;;;;;;;;5033916;28;20464;-61